createdAt,value
2017-06-11T00:00:04.468Z,0
2017-06-11T00:01:04.450Z,0
2017-06-11T00:02:04.441Z,0
2017-06-11T00:03:04.408Z,0
2017-06-11T00:04:04.399Z,0
2017-06-11T00:05:04.379Z,0
2017-06-11T00:06:04.344Z,0
2017-06-11T00:07:04.341Z,0
2017-06-11T00:08:04.365Z,0
2017-06-11T00:09:03.992Z,0
2017-06-11T00:10:04.277Z,0
2017-06-11T00:11:04.254Z,0
2017-06-11T00:12:04.231Z,0
2017-06-11T00:13:04.208Z,0
2017-06-11T00:14:04.189Z,0
2017-06-11T00:15:04.171Z,0
2017-06-11T00:16:04.146Z,0
2017-06-11T00:17:03.836Z,0
2017-06-11T00:18:04.113Z,0
2017-06-11T00:19:04.091Z,0
2017-06-11T00:20:04.081Z,0
2017-06-11T00:21:03.804Z,0
2017-06-11T00:22:04.030Z,0
2017-06-11T00:23:04.012Z,0
2017-06-11T00:24:04.017Z,0
2017-06-11T00:25:03.677Z,0
2017-06-11T00:26:03.946Z,0
2017-06-11T00:27:03.641Z,0
2017-06-11T00:28:03.960Z,0
2017-06-11T00:29:03.890Z,0
2017-06-11T00:30:03.869Z,0
2017-06-11T00:31:03.850Z,0
2017-06-11T00:32:03.841Z,0
2017-06-11T00:33:03.811Z,0
2017-06-11T00:34:03.498Z,0
2017-06-11T00:35:03.769Z,0
2017-06-11T00:36:03.992Z,0
2017-06-11T00:37:03.726Z,0
2017-06-11T00:38:03.718Z,0
2017-06-11T00:39:03.970Z,0
2017-06-11T00:40:03.697Z,0
2017-06-11T00:41:03.656Z,0
2017-06-11T00:42:03.705Z,0
2017-06-11T00:43:03.603Z,0
2017-06-11T00:44:03.592Z,0
2017-06-11T00:45:03.567Z,0
2017-06-11T00:46:03.547Z,0
2017-06-11T00:47:03.532Z,0
2017-06-11T00:48:03.860Z,0
2017-06-11T00:49:03.496Z,0
2017-06-11T00:50:03.470Z,0
2017-06-11T00:51:03.503Z,0
2017-06-11T00:52:03.435Z,0
2017-06-11T00:53:03.103Z,0
2017-06-11T00:54:03.385Z,0
2017-06-11T00:55:03.373Z,0
2017-06-11T00:56:03.341Z,0
2017-06-11T00:57:03.570Z,0
2017-06-11T00:58:03.310Z,0
2017-06-11T00:59:03.284Z,0
2017-06-11T01:00:03.272Z,0
2017-06-11T01:01:03.236Z,0
2017-06-11T01:02:03.222Z,0
2017-06-11T01:03:03.206Z,0
2017-06-11T01:04:03.231Z,0
2017-06-11T01:05:03.167Z,0
2017-06-11T01:06:02.839Z,0
2017-06-11T01:07:03.132Z,0
2017-06-11T01:08:02.797Z,0
2017-06-11T01:09:03.083Z,0
2017-06-11T01:10:03.067Z,0
2017-06-11T01:11:02.737Z,0
2017-06-11T01:12:03.027Z,0
2017-06-11T01:13:03.022Z,0
2017-06-11T01:14:02.987Z,0
2017-06-11T01:15:02.976Z,0
2017-06-11T01:16:02.939Z,0
2017-06-11T01:17:03.118Z,0
2017-06-11T01:18:02.942Z,0
2017-06-11T01:19:02.920Z,0
2017-06-11T01:20:02.859Z,0
2017-06-11T01:21:02.841Z,0
2017-06-11T01:22:02.816Z,0
2017-06-11T01:23:02.802Z,0
2017-06-11T01:24:02.783Z,0
2017-06-11T01:25:02.758Z,0
2017-06-11T01:26:02.747Z,0
2017-06-11T01:27:02.719Z,0
2017-06-11T01:28:02.428Z,0
2017-06-11T01:29:02.681Z,0
2017-06-11T01:30:02.060Z,0
2017-06-11T01:31:02.633Z,0
2017-06-11T01:32:02.633Z,0
2017-06-11T01:33:02.296Z,0
2017-06-11T01:34:02.579Z,0
2017-06-11T01:35:02.558Z,0
2017-06-11T01:36:02.542Z,0
2017-06-11T01:37:02.515Z,0
2017-06-11T01:38:02.549Z,0
2017-06-11T01:39:02.473Z,0
2017-06-11T01:40:02.502Z,0
2017-06-11T01:41:02.130Z,0
2017-06-11T01:42:02.403Z,0
2017-06-11T01:43:02.390Z,0
2017-06-11T01:44:02.373Z,0
2017-06-11T01:45:02.350Z,0
2017-06-11T01:46:02.329Z,0
2017-06-11T01:47:02.307Z,0
2017-06-11T01:48:02.306Z,0
2017-06-11T01:49:02.271Z,0
2017-06-11T01:50:02.247Z,0
2017-06-11T01:51:01.935Z,0
2017-06-11T01:52:02.217Z,0
2017-06-11T01:53:02.182Z,0
2017-06-11T01:54:02.171Z,0
2017-06-11T01:55:01.852Z,0
2017-06-11T01:56:02.132Z,0
2017-06-11T01:57:02.115Z,0
2017-06-11T01:58:02.091Z,0
2017-06-11T01:59:02.066Z,0
2017-06-11T02:00:02.045Z,0
2017-06-11T02:01:02.034Z,0
2017-06-11T02:02:02.009Z,0
2017-06-11T02:03:01.987Z,0
2017-06-11T02:04:01.968Z,0
2017-06-11T02:05:01.944Z,0
2017-06-11T02:06:01.937Z,0
2017-06-11T02:07:01.687Z,0
2017-06-11T02:08:01.886Z,0
2017-06-11T02:09:01.861Z,0
2017-06-11T02:10:01.850Z,0
2017-06-11T02:11:01.824Z,0
2017-06-11T02:12:01.504Z,0
2017-06-11T02:13:01.479Z,0
2017-06-11T02:14:01.755Z,0
2017-06-11T02:15:01.439Z,0
2017-06-11T02:16:01.728Z,0
2017-06-11T02:17:01.702Z,0
2017-06-11T02:18:01.687Z,0
2017-06-11T02:19:01.756Z,0
2017-06-11T02:20:01.649Z,0
2017-06-11T02:21:01.670Z,0
2017-06-11T02:22:01.597Z,0
2017-06-11T02:23:01.593Z,0
2017-06-11T02:24:01.568Z,0
2017-06-11T02:25:01.545Z,0
2017-06-11T02:26:01.222Z,0
2017-06-11T02:27:01.496Z,0
2017-06-11T02:28:01.471Z,0
2017-06-11T02:29:01.460Z,0
2017-06-11T02:30:01.137Z,0
2017-06-11T02:31:01.437Z,0
2017-06-11T02:32:01.436Z,0
2017-06-11T02:33:01.395Z,0
2017-06-11T02:34:01.368Z,0
2017-06-11T02:35:01.092Z,0
2017-06-11T02:36:01.418Z,0
2017-06-11T02:37:01.311Z,0
2017-06-11T02:38:01.270Z,0
2017-06-11T02:39:01.340Z,0
2017-06-11T02:40:01.237Z,0
2017-06-11T02:41:01.266Z,0
2017-06-11T02:42:00.890Z,0
2017-06-11T02:43:01.184Z,0
2017-06-11T02:44:01.156Z,0
2017-06-11T02:45:01.140Z,0
2017-06-11T02:46:01.171Z,0
2017-06-11T02:47:01.094Z,0
2017-06-11T02:48:01.080Z,0
2017-06-11T02:49:01.274Z,0
2017-06-11T02:50:01.029Z,0
2017-06-11T02:51:01.012Z,0
2017-06-11T02:52:00.996Z,0
2017-06-11T02:53:00.968Z,0
2017-06-11T02:54:00.951Z,0
2017-06-11T02:55:00.927Z,0
2017-06-11T02:56:00.930Z,0
2017-06-11T02:57:00.898Z,0
2017-06-11T02:58:00.867Z,0
2017-06-11T02:59:00.847Z,0
2017-06-11T03:00:00.892Z,0
2017-06-11T03:01:00.863Z,5
2017-06-11T03:02:00.791Z,5
2017-06-11T03:03:00.774Z,5
2017-06-11T03:04:00.751Z,5
2017-06-11T03:05:00.729Z,5
2017-06-11T03:06:00.699Z,5
2017-06-11T03:07:00.685Z,5
2017-06-11T03:08:00.404Z,5
2017-06-11T03:09:00.345Z,5
2017-06-11T03:10:00.632Z,5
2017-06-11T03:11:00.605Z,10
2017-06-11T03:12:00.281Z,10
2017-06-11T03:13:00.572Z,10
2017-06-11T03:14:00.652Z,10
2017-06-11T03:15:00.530Z,10
2017-06-11T03:16:00.504Z,10
2017-06-11T03:17:00.491Z,10
2017-06-11T03:18:00.458Z,15
2017-06-11T03:19:00.446Z,15
2017-06-11T03:20:00.424Z,15
2017-06-11T03:21:00.403Z,15
2017-06-11T03:22:00.401Z,15
2017-06-11T03:23:00.358Z,15
2017-06-11T03:24:00.387Z,20
2017-06-11T03:25:00.372Z,20
2017-06-11T03:26:00.595Z,20
2017-06-11T03:27:00.303Z,20
2017-06-11T03:28:00.258Z,25
2017-06-11T03:29:00.247Z,25
2017-06-11T03:30:00.264Z,25
2017-06-11T03:31:00.252Z,25
2017-06-11T03:31:59.882Z,30
2017-06-11T03:33:00.154Z,30
2017-06-11T03:34:00.127Z,35
2017-06-11T03:35:00.116Z,35
2017-06-11T03:36:00.110Z,40
2017-06-11T03:37:00.088Z,45
2017-06-11T03:38:00.113Z,45
2017-06-11T03:39:00.043Z,45
2017-06-11T03:40:00.010Z,50
2017-06-11T03:40:59.992Z,55
2017-06-11T03:41:59.965Z,60
2017-06-11T03:42:59.954Z,60
2017-06-11T03:43:59.940Z,65
2017-06-11T03:44:59.974Z,70
2017-06-11T03:45:59.896Z,85
2017-06-11T03:46:59.872Z,95
2017-06-11T03:47:59.903Z,95
2017-06-11T03:48:59.833Z,105
2017-06-11T03:49:59.826Z,100
2017-06-11T03:50:59.802Z,80
2017-06-11T03:51:59.773Z,70
2017-06-11T03:52:59.756Z,75
2017-06-11T03:53:59.727Z,85
2017-06-11T03:54:59.415Z,100
2017-06-11T03:55:59.743Z,105
2017-06-11T03:56:59.668Z,100
2017-06-11T03:57:59.652Z,105
2017-06-11T03:58:59.637Z,95
2017-06-11T03:59:59.611Z,85
2017-06-11T04:00:59.602Z,70
2017-06-11T04:01:59.575Z,70
2017-06-11T04:02:59.255Z,65
2017-06-11T04:03:59.537Z,65
2017-06-11T04:04:59.513Z,65
2017-06-11T04:05:59.490Z,65
2017-06-11T04:06:59.473Z,60
2017-06-11T04:07:59.458Z,60
2017-06-11T04:08:59.444Z,60
2017-06-11T04:09:59.490Z,60
2017-06-11T04:10:59.396Z,60
2017-06-11T04:11:59.373Z,65
2017-06-11T04:12:59.364Z,75
2017-06-11T04:13:59.336Z,80
2017-06-11T04:14:59.321Z,80
2017-06-11T04:15:59.306Z,85
2017-06-11T04:16:59.295Z,90
2017-06-11T04:17:59.255Z,100
2017-06-11T04:18:59.234Z,110
2017-06-11T04:19:59.211Z,120
2017-06-11T04:20:59.248Z,120
2017-06-11T04:21:59.186Z,145
2017-06-11T04:22:59.203Z,225
2017-06-11T04:23:59.192Z,300
2017-06-11T04:24:59.165Z,310
2017-06-11T04:25:59.098Z,315
2017-06-11T04:26:59.078Z,325
2017-06-11T04:27:59.079Z,330
2017-06-11T04:28:58.737Z,335
2017-06-11T04:29:59.019Z,345
2017-06-11T04:30:59.020Z,365
2017-06-11T04:31:58.988Z,375
2017-06-11T04:32:58.983Z,385
2017-06-11T04:33:58.648Z,390
2017-06-11T04:34:59.234Z,380
2017-06-11T04:35:58.958Z,365
2017-06-11T04:36:58.676Z,180
2017-06-11T04:37:58.891Z,245
2017-06-11T04:38:58.868Z,285
2017-06-11T04:39:58.834Z,255
2017-06-11T04:40:58.825Z,195
2017-06-11T04:41:58.810Z,375
2017-06-11T04:42:58.789Z,360
2017-06-11T04:43:58.768Z,365
2017-06-11T04:44:58.743Z,215
2017-06-11T04:45:58.774Z,315
2017-06-11T04:46:58.716Z,385
2017-06-11T04:47:58.699Z,285
2017-06-11T04:48:58.680Z,165
2017-06-11T04:49:58.667Z,165
2017-06-11T04:50:58.645Z,165
2017-06-11T04:51:58.624Z,160
2017-06-11T04:52:58.619Z,155
2017-06-11T04:53:58.660Z,160
2017-06-11T04:54:58.279Z,165
2017-06-11T04:55:58.566Z,175
2017-06-11T04:56:58.544Z,180
2017-06-11T04:57:58.783Z,185
2017-06-11T04:58:58.509Z,180
2017-06-11T04:59:58.487Z,190
2017-06-11T05:00:58.478Z,200
2017-06-11T05:01:58.458Z,215
2017-06-11T05:02:58.454Z,240
2017-06-11T05:03:58.468Z,260
2017-06-11T05:04:58.168Z,290
2017-06-11T05:05:58.407Z,300
2017-06-11T05:06:58.367Z,295
2017-06-11T05:07:58.357Z,305
2017-06-11T05:08:58.330Z,390
2017-06-11T05:09:58.321Z,320
2017-06-11T05:10:58.305Z,630
2017-06-11T05:11:58.331Z,435
2017-06-11T05:12:58.640Z,540
2017-06-11T05:13:58.261Z,495
2017-06-11T05:14:58.241Z,395
2017-06-11T05:15:57.910Z,315
2017-06-11T05:16:58.191Z,300
2017-06-11T05:17:58.179Z,295
2017-06-11T05:18:58.212Z,260
2017-06-11T05:19:58.402Z,260
2017-06-11T05:20:58.131Z,285
2017-06-11T05:21:57.805Z,360
2017-06-11T05:22:58.097Z,295
2017-06-11T05:23:58.081Z,300
2017-06-11T05:24:58.066Z,305
2017-06-11T05:25:58.063Z,305
2017-06-11T05:26:58.028Z,290
2017-06-11T05:27:58.023Z,285
2017-06-11T05:28:57.994Z,320
2017-06-11T05:29:57.968Z,290
2017-06-11T05:30:57.982Z,295
2017-06-11T05:31:57.949Z,290
2017-06-11T05:32:57.929Z,290
2017-06-11T05:33:58.420Z,305
2017-06-11T05:34:57.928Z,325
2017-06-11T05:35:57.877Z,345
2017-06-11T05:36:57.935Z,340
2017-06-11T05:37:57.843Z,355
2017-06-11T05:38:57.839Z,355
2017-06-11T05:39:57.826Z,335
2017-06-11T05:40:57.790Z,340
2017-06-11T05:41:57.818Z,340
2017-06-11T05:42:57.762Z,320
2017-06-11T05:43:57.748Z,290
2017-06-11T05:44:57.729Z,260
2017-06-11T05:45:57.900Z,260
2017-06-11T05:46:57.695Z,260
2017-06-11T05:47:57.674Z,270
2017-06-11T05:48:57.971Z,260
2017-06-11T05:49:57.638Z,245
2017-06-11T05:50:57.635Z,240
2017-06-11T05:51:57.605Z,235
2017-06-11T05:52:57.588Z,220
2017-06-11T05:53:57.629Z,210
2017-06-11T05:54:57.603Z,200
2017-06-11T05:55:57.533Z,200
2017-06-11T05:56:57.523Z,205
2017-06-11T05:57:57.512Z,210
2017-06-11T05:58:57.485Z,210
2017-06-11T05:59:57.512Z,210
2017-06-11T06:00:57.500Z,205
2017-06-11T06:01:57.443Z,210
2017-06-11T06:02:57.414Z,225
2017-06-11T06:03:57.399Z,245
2017-06-11T06:04:57.385Z,260
2017-06-11T06:05:57.361Z,275
2017-06-11T06:06:57.345Z,285
2017-06-11T06:07:57.330Z,285
2017-06-11T06:08:57.303Z,265
2017-06-11T06:09:57.292Z,240
2017-06-11T06:10:57.295Z,215
2017-06-11T06:11:57.258Z,190
2017-06-11T06:12:57.492Z,185
2017-06-11T06:13:57.220Z,200
2017-06-11T06:14:57.213Z,215
2017-06-11T06:15:56.880Z,230
2017-06-11T06:16:56.865Z,255
2017-06-11T06:17:57.148Z,275
2017-06-11T06:18:57.137Z,280
2017-06-11T06:19:57.157Z,285
2017-06-11T06:20:57.100Z,280
2017-06-11T06:21:56.781Z,285
2017-06-11T06:22:57.068Z,280
2017-06-11T06:23:57.051Z,265
2017-06-11T06:24:57.075Z,280
2017-06-11T06:25:57.060Z,310
2017-06-11T06:26:56.999Z,330
2017-06-11T06:27:56.985Z,335
2017-06-11T06:28:56.962Z,345
2017-06-11T06:29:56.946Z,350
2017-06-11T06:30:56.922Z,350
2017-06-11T06:31:56.911Z,340
2017-06-11T06:32:56.890Z,330
2017-06-11T06:33:56.877Z,325
2017-06-11T06:34:56.855Z,335
2017-06-11T06:35:56.836Z,355
2017-06-11T06:36:56.873Z,375
2017-06-11T06:37:56.799Z,400
2017-06-11T06:38:56.491Z,415
2017-06-11T06:39:56.765Z,410
2017-06-11T06:40:56.747Z,425
2017-06-11T06:41:56.778Z,430
2017-06-11T06:42:56.712Z,435
2017-06-11T06:43:56.717Z,440
2017-06-11T06:44:56.673Z,450
2017-06-11T06:45:56.664Z,440
2017-06-11T06:46:56.651Z,445
2017-06-11T06:47:56.686Z,455
2017-06-11T06:48:56.608Z,450
2017-06-11T06:49:56.641Z,460
2017-06-11T06:50:56.636Z,485
2017-06-11T06:51:56.557Z,505
2017-06-11T06:52:56.558Z,500
2017-06-11T06:53:56.238Z,460
2017-06-11T06:54:56.517Z,435
2017-06-11T06:55:56.498Z,445
2017-06-11T06:56:56.485Z,450
2017-06-11T06:57:56.465Z,455
2017-06-11T06:58:56.451Z,470
2017-06-11T06:59:56.422Z,465
2017-06-11T07:00:56.412Z,485
2017-06-11T07:01:56.404Z,485
2017-06-11T07:02:56.384Z,515
2017-06-11T07:03:56.404Z,555
2017-06-11T07:04:55.749Z,590
2017-06-11T07:05:56.377Z,630
2017-06-11T07:06:56.317Z,710
2017-06-11T07:07:56.293Z,700
2017-06-11T07:08:56.284Z,770
2017-06-11T07:09:56.271Z,1175
2017-06-11T07:10:56.252Z,1230
2017-06-11T07:11:56.236Z,1310
2017-06-11T07:12:56.267Z,1365
2017-06-11T07:13:56.256Z,1060
2017-06-11T07:14:56.197Z,1015
2017-06-11T07:15:56.175Z,925
2017-06-11T07:16:56.198Z,955
2017-06-11T07:17:56.155Z,1125
2017-06-11T07:18:56.450Z,830
2017-06-11T07:19:56.143Z,750
2017-06-11T07:20:56.157Z,805
2017-06-11T07:21:56.100Z,945
2017-06-11T07:22:56.095Z,1015
2017-06-11T07:23:56.075Z,1195
2017-06-11T07:24:56.056Z,800
2017-06-11T07:25:56.057Z,785
2017-06-11T07:26:56.050Z,710
2017-06-11T07:27:56.073Z,635
2017-06-11T07:28:56.006Z,660
2017-06-11T07:29:55.967Z,635
2017-06-11T07:30:55.684Z,745
2017-06-11T07:31:55.970Z,1350
2017-06-11T07:32:55.963Z,1540
2017-06-11T07:33:55.953Z,885
2017-06-11T07:34:56.009Z,805
2017-06-11T07:35:55.927Z,790
2017-06-11T07:36:55.608Z,945
2017-06-11T07:37:55.895Z,965
2017-06-11T07:38:55.891Z,1065
2017-06-11T07:39:55.878Z,970
2017-06-11T07:40:55.865Z,1000
2017-06-11T07:41:55.855Z,980
2017-06-11T07:42:55.836Z,1300
2017-06-11T07:43:55.835Z,1340
2017-06-11T07:44:55.824Z,1550
2017-06-11T07:45:55.819Z,1340
2017-06-11T07:46:55.790Z,1250
2017-06-11T07:47:55.886Z,1430
2017-06-11T07:48:55.783Z,1470
2017-06-11T07:49:55.764Z,1590
2017-06-11T07:50:55.757Z,1575
2017-06-11T07:51:55.449Z,1615
2017-06-11T07:52:55.748Z,1110
2017-06-11T07:53:55.739Z,1475
2017-06-11T07:54:55.464Z,1340
2017-06-11T07:55:55.719Z,1355
2017-06-11T07:56:55.422Z,855
2017-06-11T07:57:55.708Z,820
2017-06-11T07:58:55.755Z,1160
2017-06-11T07:59:55.417Z,1455
2017-06-11T08:00:55.676Z,1515
2017-06-11T08:01:55.677Z,1275
2017-06-11T08:02:55.667Z,1385
2017-06-11T08:03:55.679Z,1340
2017-06-11T08:04:55.649Z,1835
2017-06-11T08:05:55.697Z,1615
2017-06-11T08:06:55.748Z,1480
2017-06-11T08:07:55.634Z,1225
2017-06-11T08:08:55.631Z,1460
2017-06-11T08:09:55.665Z,1045
2017-06-11T08:10:55.610Z,1320
2017-06-11T08:11:55.644Z,1400
2017-06-11T08:12:55.614Z,1410
2017-06-11T08:13:55.577Z,1525
2017-06-11T08:14:55.584Z,1345
2017-06-11T08:15:55.276Z,2265
2017-06-11T08:16:55.573Z,2115
2017-06-11T08:17:55.811Z,2005
2017-06-11T08:18:55.560Z,2015
2017-06-11T08:19:55.543Z,1865
2017-06-11T08:20:55.544Z,1440
2017-06-11T08:21:54.946Z,1515
2017-06-11T08:22:55.532Z,1510
2017-06-11T08:23:55.534Z,1470
2017-06-11T08:24:55.280Z,1750
2017-06-11T08:25:55.576Z,1855
2017-06-11T08:26:55.213Z,1745
2017-06-11T08:27:55.754Z,1850
2017-06-11T08:28:55.508Z,2040
2017-06-11T08:29:55.526Z,2100
2017-06-11T08:30:55.482Z,2175
2017-06-11T08:31:55.481Z,2205
2017-06-11T08:32:55.482Z,2140
2017-06-11T08:33:55.521Z,2130
2017-06-11T08:34:55.521Z,2045
2017-06-11T08:35:55.482Z,2210
2017-06-11T08:36:55.463Z,2215
2017-06-11T08:37:55.460Z,2190
2017-06-11T08:38:55.485Z,2040
2017-06-11T08:39:55.456Z,2255
2017-06-11T08:40:55.467Z,1910
2017-06-11T08:41:55.158Z,2275
2017-06-11T08:42:55.500Z,2315
2017-06-11T08:43:55.443Z,2270
2017-06-11T08:44:55.443Z,2175
2017-06-11T08:45:55.478Z,2120
2017-06-11T08:46:55.444Z,1940
2017-06-11T08:47:55.449Z,2055
2017-06-11T08:48:55.142Z,1845
2017-06-11T08:49:55.481Z,1945
2017-06-11T08:50:55.491Z,1905
2017-06-11T08:51:55.473Z,1780
2017-06-11T08:52:55.126Z,1835
2017-06-11T08:53:55.465Z,1975
2017-06-11T08:54:55.418Z,2065
2017-06-11T08:55:55.424Z,1860
2017-06-11T08:56:55.427Z,2090
2017-06-11T08:57:55.476Z,2105
2017-06-11T08:58:55.426Z,1785
2017-06-11T08:59:55.411Z,1875
2017-06-11T09:00:55.416Z,2055
2017-06-11T09:01:55.406Z,1915
2017-06-11T09:02:55.469Z,2160
2017-06-11T09:03:55.444Z,2125
2017-06-11T09:04:55.401Z,2030
2017-06-11T09:05:55.401Z,2230
2017-06-11T09:06:55.394Z,2210
2017-06-11T09:07:55.402Z,2300
2017-06-11T09:08:55.387Z,1880
2017-06-11T09:09:55.390Z,1730
2017-06-11T09:10:55.386Z,1360
2017-06-11T09:11:55.380Z,1550
2017-06-11T09:12:55.387Z,1490
2017-06-11T09:13:55.388Z,1555
2017-06-11T09:14:55.421Z,1585
2017-06-11T09:15:55.434Z,1625
2017-06-11T09:16:55.379Z,1200
2017-06-11T09:17:55.371Z,1215
2017-06-11T09:18:55.369Z,1180
2017-06-11T09:19:55.364Z,1155
2017-06-11T09:20:55.364Z,1445
2017-06-11T09:21:55.614Z,1145
2017-06-11T09:22:55.364Z,1310
2017-06-11T09:23:55.352Z,1455
2017-06-11T09:24:55.338Z,1215
2017-06-11T09:25:55.390Z,1105
2017-06-11T09:26:55.343Z,1170
2017-06-11T09:27:55.330Z,1235
2017-06-11T09:28:55.321Z,1095
2017-06-11T09:29:55.331Z,1095
2017-06-11T09:30:55.009Z,2010
2017-06-11T09:31:55.308Z,1105
2017-06-11T09:32:55.303Z,1515
2017-06-11T09:33:55.299Z,1380
2017-06-11T09:34:55.286Z,1395
2017-06-11T09:35:55.283Z,2100
2017-06-11T09:36:55.276Z,1290
2017-06-11T09:37:55.267Z,1375
2017-06-11T09:38:55.272Z,1470
2017-06-11T09:39:55.265Z,1385
2017-06-11T09:40:55.256Z,1315
2017-06-11T09:41:55.250Z,1850
2017-06-11T09:42:55.339Z,1120
2017-06-11T09:43:55.229Z,2090
2017-06-11T09:44:55.228Z,1310
2017-06-11T09:45:55.219Z,1580
2017-06-11T09:46:55.225Z,1410
2017-06-11T09:47:55.221Z,1835
2017-06-11T09:48:54.611Z,1350
2017-06-11T09:49:55.196Z,1415
2017-06-11T09:50:55.199Z,1335
2017-06-11T09:51:55.237Z,1400
2017-06-11T09:52:55.432Z,1265
2017-06-11T09:53:55.171Z,1315
2017-06-11T09:54:54.861Z,1460
2017-06-11T09:55:55.159Z,1755
2017-06-11T09:56:55.218Z,1185
2017-06-11T09:57:55.160Z,1375
2017-06-11T09:58:55.133Z,2175
2017-06-11T09:59:55.130Z,1410
2017-06-11T10:00:55.128Z,2195
2017-06-11T10:01:55.128Z,2030
2017-06-11T10:02:54.818Z,2030
2017-06-11T10:03:54.821Z,2375
2017-06-11T10:04:55.120Z,1595
2017-06-11T10:05:55.167Z,1690
2017-06-11T10:06:54.804Z,1250
2017-06-11T10:07:55.101Z,1615
2017-06-11T10:08:55.096Z,1565
2017-06-11T10:09:55.098Z,1155
2017-06-11T10:10:54.772Z,1245
2017-06-11T10:11:55.093Z,1685
2017-06-11T10:12:54.473Z,1450
2017-06-11T10:13:54.477Z,1385
2017-06-11T10:14:55.072Z,1165
2017-06-11T10:15:55.296Z,1045
2017-06-11T10:16:55.050Z,1120
2017-06-11T10:17:55.055Z,1075
2017-06-11T10:18:55.035Z,1150
2017-06-11T10:19:55.038Z,1105
2017-06-11T10:20:54.781Z,1325
2017-06-11T10:21:55.051Z,895
2017-06-11T10:22:55.032Z,1010
2017-06-11T10:23:55.051Z,2595
2017-06-11T10:24:54.716Z,915
2017-06-11T10:25:55.013Z,815
2017-06-11T10:26:55.033Z,845
2017-06-11T10:27:55.000Z,1420
2017-06-11T10:28:54.983Z,880
2017-06-11T10:29:54.980Z,930
2017-06-11T10:30:54.977Z,1215
2017-06-11T10:31:54.959Z,1200
2017-06-11T10:32:54.664Z,2005
2017-06-11T10:33:54.985Z,1490
2017-06-11T10:34:54.941Z,1285
2017-06-11T10:35:54.922Z,1340
2017-06-11T10:36:54.917Z,1405
2017-06-11T10:37:54.898Z,1435
2017-06-11T10:38:54.906Z,1780
2017-06-11T10:39:54.889Z,1615
2017-06-11T10:40:54.583Z,1340
2017-06-11T10:41:54.825Z,1310
2017-06-11T10:42:54.916Z,1390
2017-06-11T10:43:54.858Z,1305
2017-06-11T10:44:54.853Z,1850
2017-06-11T10:45:54.851Z,1655
2017-06-11T10:46:54.543Z,1765
2017-06-11T10:47:54.899Z,1470
2017-06-11T10:48:54.821Z,1290
2017-06-11T10:49:54.813Z,1415
2017-06-11T10:50:54.813Z,1730
2017-06-11T10:51:54.814Z,1615
2017-06-11T10:52:54.882Z,2110
2017-06-11T10:53:54.814Z,2170
2017-06-11T10:54:54.782Z,1565
2017-06-11T10:55:54.496Z,1310
2017-06-11T10:56:54.763Z,1175
2017-06-11T10:57:54.767Z,960
2017-06-11T10:58:55.109Z,870
2017-06-11T10:59:54.449Z,915
2017-06-11T11:00:54.800Z,910
2017-06-11T11:01:54.461Z,830
2017-06-11T11:02:54.429Z,885
2017-06-11T11:03:54.731Z,850
2017-06-11T11:04:54.422Z,880
2017-06-11T11:05:54.720Z,840
2017-06-11T11:06:54.706Z,895
2017-06-11T11:07:54.742Z,1045
2017-06-11T11:08:54.689Z,1595
2017-06-11T11:09:54.388Z,1780
2017-06-11T11:10:54.670Z,1700
2017-06-11T11:11:54.666Z,1185
2017-06-11T11:12:54.661Z,1025
2017-06-11T11:13:54.703Z,1005
2017-06-11T11:14:54.703Z,1080
2017-06-11T11:15:54.635Z,1000
2017-06-11T11:16:54.628Z,975
2017-06-11T11:17:54.641Z,885
2017-06-11T11:18:54.608Z,875
2017-06-11T11:19:54.608Z,835
2017-06-11T11:20:54.610Z,840
2017-06-11T11:21:54.589Z,810
2017-06-11T11:22:54.584Z,810
2017-06-11T11:23:54.490Z,795
2017-06-11T11:24:54.259Z,790
2017-06-11T11:25:54.564Z,765
2017-06-11T11:26:54.560Z,765
2017-06-11T11:27:54.547Z,755
2017-06-11T11:28:54.522Z,750
2017-06-11T11:29:54.525Z,745
2017-06-11T11:30:53.608Z,740
2017-06-11T11:31:54.504Z,750
2017-06-11T11:32:54.495Z,765
2017-06-11T11:33:54.488Z,770
2017-06-11T11:34:54.188Z,765
2017-06-11T11:35:54.168Z,750
2017-06-11T11:36:54.477Z,740
2017-06-11T11:37:54.697Z,740
2017-06-11T11:38:54.480Z,735
2017-06-11T11:39:54.432Z,740
2017-06-11T11:40:54.386Z,755
2017-06-11T11:41:54.524Z,770
2017-06-11T11:42:54.094Z,780
2017-06-11T11:43:54.398Z,785
2017-06-11T11:44:54.378Z,765
2017-06-11T11:45:54.366Z,760
2017-06-11T11:46:54.367Z,760
2017-06-11T11:47:54.408Z,740
2017-06-11T11:48:54.337Z,740
2017-06-11T11:49:54.328Z,750
2017-06-11T11:50:54.027Z,770
2017-06-11T11:51:54.311Z,795
2017-06-11T11:52:54.293Z,810
2017-06-11T11:53:54.290Z,795
2017-06-11T11:54:54.273Z,765
2017-06-11T11:55:53.964Z,740
2017-06-11T11:56:53.684Z,715
2017-06-11T11:57:53.983Z,700
2017-06-11T11:58:54.303Z,670
2017-06-11T11:59:54.233Z,635
2017-06-11T12:00:53.936Z,610
2017-06-11T12:01:54.271Z,615
2017-06-11T12:02:54.220Z,615
2017-06-11T12:03:54.187Z,610
2017-06-11T12:04:54.170Z,595
2017-06-11T12:05:54.175Z,590
2017-06-11T12:06:54.169Z,615
2017-06-11T12:07:54.210Z,640
2017-06-11T12:08:54.202Z,655
2017-06-11T12:09:53.844Z,665
2017-06-11T12:10:54.124Z,675
2017-06-11T12:11:54.122Z,670
2017-06-11T12:12:54.096Z,655
2017-06-11T12:13:54.137Z,650
2017-06-11T12:14:54.078Z,645
2017-06-11T12:15:54.123Z,645
2017-06-11T12:16:54.055Z,650
2017-06-11T12:17:54.046Z,660
2017-06-11T12:18:54.027Z,675
2017-06-11T12:19:53.720Z,695
2017-06-11T12:20:54.013Z,695
2017-06-11T12:21:53.712Z,690
2017-06-11T12:22:54.006Z,685
2017-06-11T12:23:53.379Z,680
2017-06-11T12:24:53.995Z,675
2017-06-11T12:25:53.963Z,690
2017-06-11T12:26:53.943Z,705
2017-06-11T12:27:53.940Z,715
2017-06-11T12:28:53.925Z,715
2017-06-11T12:29:53.918Z,715
2017-06-11T12:30:53.911Z,715
2017-06-11T12:31:53.896Z,725
2017-06-11T12:32:53.584Z,725
2017-06-11T12:33:53.875Z,720
2017-06-11T12:34:53.568Z,705
2017-06-11T12:35:53.861Z,690
2017-06-11T12:36:53.849Z,695
2017-06-11T12:37:53.842Z,675
2017-06-11T12:38:53.829Z,660
2017-06-11T12:39:53.823Z,655
2017-06-11T12:40:53.848Z,655
2017-06-11T12:41:53.794Z,650
2017-06-11T12:42:53.773Z,635
2017-06-11T12:43:53.768Z,640
2017-06-11T12:44:53.479Z,635
2017-06-11T12:45:53.751Z,640
2017-06-11T12:46:53.731Z,630
2017-06-11T12:47:53.722Z,610
2017-06-11T12:48:53.730Z,605
2017-06-11T12:49:53.717Z,570
2017-06-11T12:50:53.403Z,545
2017-06-11T12:51:53.698Z,540
2017-06-11T12:52:53.676Z,560
2017-06-11T12:53:52.772Z,595
2017-06-11T12:54:53.359Z,615
2017-06-11T12:55:53.646Z,605
2017-06-11T12:56:53.645Z,595
2017-06-11T12:57:53.637Z,595
2017-06-11T12:58:53.010Z,590
2017-06-11T12:59:53.300Z,565
2017-06-11T13:00:53.309Z,555
2017-06-11T13:01:53.629Z,535
2017-06-11T13:02:53.569Z,515
2017-06-11T13:03:53.547Z,500
2017-06-11T13:04:53.544Z,475
2017-06-11T13:05:53.545Z,450
2017-06-11T13:06:53.523Z,445
2017-06-11T13:07:53.507Z,425
2017-06-11T13:08:53.503Z,415
2017-06-11T13:09:53.552Z,410
2017-06-11T13:10:53.532Z,435
2017-06-11T13:11:53.525Z,480
2017-06-11T13:12:53.470Z,490
2017-06-11T13:13:53.440Z,485
2017-06-11T13:14:53.429Z,485
2017-06-11T13:15:53.428Z,465
2017-06-11T13:16:53.415Z,465
2017-06-11T13:17:53.391Z,455
2017-06-11T13:18:53.378Z,430
2017-06-11T13:19:53.374Z,390
2017-06-11T13:20:53.296Z,355
2017-06-11T13:21:53.347Z,335
2017-06-11T13:22:53.338Z,325
2017-06-11T13:23:53.326Z,335
2017-06-11T13:24:53.406Z,350
2017-06-11T13:25:53.356Z,385
2017-06-11T13:26:53.284Z,400
2017-06-11T13:27:53.269Z,415
2017-06-11T13:28:53.260Z,445
2017-06-11T13:29:52.950Z,450
2017-06-11T13:30:53.259Z,440
2017-06-11T13:31:53.250Z,400
2017-06-11T13:32:53.220Z,370
2017-06-11T13:33:52.900Z,360
2017-06-11T13:34:53.193Z,365
2017-06-11T13:35:52.878Z,370
2017-06-11T13:36:53.179Z,375
2017-06-11T13:37:53.409Z,380
2017-06-11T13:38:53.158Z,380
2017-06-11T13:39:53.433Z,365
2017-06-11T13:40:53.120Z,360
2017-06-11T13:41:53.117Z,380
2017-06-11T13:42:53.096Z,395
2017-06-11T13:43:53.135Z,400
2017-06-11T13:44:53.077Z,375
2017-06-11T13:45:53.064Z,350
2017-06-11T13:46:53.055Z,345
2017-06-11T13:47:53.035Z,340
2017-06-11T13:48:53.031Z,335
2017-06-11T13:49:53.021Z,310
2017-06-11T13:50:52.997Z,300
2017-06-11T13:51:52.985Z,290
2017-06-11T13:52:52.970Z,295
2017-06-11T13:53:52.958Z,320